Time;durP1;ratioP1;P1;durP2;ratioP2;P2;SDS_P1;SDS_P2;PMS_P1;PMS_P2;Temp;Humidity;BMP_temperature;BMP_pressure;BME280_temperature;BME280_humidity;BME280_pressure;Samples;Min_cycle;Max_cycle;Signal;HPM_P1;HPM_P2
2023/04/29 00:01:12;;;;;;;10.80;8.38;;;;;;;10.07;100.00;98003.75;4200313;28;20081;-72
2023/04/29 00:03:13;;;;;;;12.75;8.55;;;;;;;10.10;100.00;97999.44;4197238;28;20048;-72
2023/04/29 00:05:13;;;;;;;15.32;9.68;;;;;;;10.11;100.00;97998.25;4196465;28;20044;-72
2023/04/29 00:07:14;;;;;;;13.45;9.10;;;;;;;10.18;100.00;98000.25;4198874;28;20130;-72
2023/04/29 00:09:15;;;;;;;11.93;8.75;;;;;;;10.19;100.00;98004.63;4197637;28;20499;-72
2023/04/29 00:11:15;;;;;;;12.43;8.65;;;;;;;10.21;100.00;97992.00;4202474;28;20048;-72
2023/04/29 00:13:16;;;;;;;11.80;8.77;;;;;;;10.25;100.00;97989.25;4201305;28;20081;-72
2023/04/29 00:15:17;;;;;;;12.23;8.20;;;;;;;10.27;100.00;97984.16;4199373;28;20442;-72
2023/04/29 00:17:17;;;;;;;10.80;8.13;;;;;;;10.25;100.00;97986.50;4202323;28;20085;-72
2023/04/29 00:19:18;;;;;;;11.20;8.20;;;;;;;10.24;100.00;97984.91;4194755;28;20033;-72
2023/04/29 00:21:19;;;;;;;10.82;8.10;;;;;;;10.20;100.00;97981.31;4203338;28;20067;-72
2023/04/29 00:23:20;;;;;;;12.25;7.47;;;;;;;10.16;100.00;97984.06;4196926;28;20048;-72
2023/04/29 00:25:20;;;;;;;9.85;7.05;;;;;;;10.12;100.00;97986.81;4202802;28;20210;-72
2023/04/29 00:27:20;;;;;;;10.27;8.05;;;;;;;10.10;100.00;97985.63;4201579;28;20044;-72
2023/04/29 00:29:22;;;;;;;11.07;8.40;;;;;;;10.08;100.00;97985.19;4198061;28;20072;-72
2023/04/29 00:31:23;;;;;;;11.87;8.17;;;;;;;10.09;100.00;97990.34;4200281;28;20910;-72
2023/04/29 00:33:23;;;;;;;11.43;8.73;;;;;;;10.09;100.00;97986.78;4198563;28;20306;-72
2023/04/29 00:35:23;;;;;;;11.75;8.88;;;;;;;10.07;100.00;97992.69;4199802;28;20044;-72
2023/04/29 00:37:24;;;;;;;13.38;9.02;;;;;;;10.06;100.00;97987.56;4200401;28;20048;-72
2023/04/29 00:39:24;;;;;;;9.80;7.65;;;;;;;10.07;100.00;98000.19;4201767;28;20123;-72
2023/04/29 00:41:25;;;;;;;11.10;7.93;;;;;;;10.09;100.00;98003.34;4203213;28;20154;-72
2023/04/29 00:43:25;;;;;;;11.75;7.90;;;;;;;10.09;100.00;97993.13;4198070;28;20094;-72
2023/04/29 00:45:26;;;;;;;10.13;7.93;;;;;;;10.12;100.00;97997.88;4200027;28;20119;-72
2023/04/29 00:47:26;;;;;;;10.63;7.72;;;;;;;10.18;100.00;98001.06;4195683;28;20045;-72
2023/04/29 00:49:27;;;;;;;11.85;8.10;;;;;;;10.25;100.00;98006.63;4202285;28;20044;-72
2023/04/29 00:51:28;;;;;;;11.02;7.38;;;;;;;10.26;100.00;98007.44;4203131;28;20074;-72
2023/04/29 00:53:29;;;;;;;8.32;6.63;;;;;;;10.26;100.00;98012.97;4195210;28;20040;-72
2023/04/29 00:55:31;;;;;;;9.82;7.10;;;;;;;10.24;100.00;98012.56;4199788;28;20443;-72
2023/04/29 00:57:33;;;;;;;10.65;6.75;;;;;;;10.24;100.00;98012.56;4196533;28;20452;-72
2023/04/29 00:59:35;;;;;;;12.32;7.93;;;;;;;10.20;100.00;98008.97;4199764;28;20117;-72
2023/04/29 01:01:35;;;;;;;11.20;8.05;;;;;;;10.19;100.00;98007.38;4200449;28;20060;-72
2023/04/29 01:03:36;;;;;;;10.10;7.53;;;;;;;10.21;100.00;98014.09;4192834;28;20048;-72
2023/04/29 01:05:36;;;;;;;9.73;7.32;;;;;;;10.22;100.00;98017.66;4200721;28;20127;-72
2023/04/29 01:07:47;;;;;;;10.13;7.40;;;;;;;10.20;100.00;98015.28;4198328;28;20454;-72
2023/04/29 01:10:00;;;;;;;11.15;6.95;;;;;;;10.19;100.00;98015.69;4195735;28;20485;-72
2023/04/29 01:12:21;;;;;;;9.25;6.85;;;;;;;10.18;100.00;98014.06;4197128;28;20424;-72
2023/04/29 01:14:23;;;;;;;9.90;6.85;;;;;;;10.18;100.00;98016.84;4196306;28;20065;-72
2023/04/29 01:16:30;;;;;;;9.75;6.93;;;;;;;10.14;100.00;98016.81;4200688;28;20452;-72
2023/04/29 01:18:38;;;;;;;10.65;7.47;;;;;;;10.17;100.00;98018.81;4195857;28;20067;-72
2023/04/29 01:20:39;;;;;;;8.18;6.22;;;;;;;10.14;100.00;98017.63;4199437;28;20052;-72
2023/04/29 01:22:40;;;;;;;8.63;6.73;;;;;;;10.14;100.00;98014.84;4197692;28;20123;-72
2023/04/29 01:24:41;;;;;;;8.93;6.70;;;;;;;10.13;100.00;98016.03;4200663;28;20133;-72
2023/04/29 01:26:52;;;;;;;7.78;6.07;;;;;;;10.08;100.00;98010.84;4199105;28;20125;-72
2023/04/29 01:29:12;;;;;;;8.02;5.88;;;;;;;10.12;100.00;98016.44;4204697;28;20444;-72
2023/04/29 01:31:30;;;;;;;8.20;6.43;;;;;;;10.14;100.00;98020.38;4205326;28;20464;-72
2023/04/29 01:33:47;;;;;;;9.02;6.55;;;;;;;10.12;100.00;98021.94;4197909;28;20086;-72
2023/04/29 01:35:52;;;;;;;8.98;6.95;;;;;;;10.12;100.00;98019.97;4197487;28;20476;-72
2023/04/29 01:38:10;;;;;;;7.45;5.82;;;;;;;10.09;100.00;98022.69;4197143;28;20457;-72
2023/04/29 01:40:18;;;;;;;9.13;6.45;;;;;;;10.06;100.00;98009.66;4193834;28;20063;-72
2023/04/29 01:42:25;;;;;;;8.55;6.40;;;;;;;10.06;100.00;98023.50;4198949;28;20028;-72
2023/04/29 01:44:28;;;;;;;9.18;6.15;;;;;;;10.03;100.00;98016.78;4199641;28;20076;-72
2023/04/29 01:46:29;;;;;;;8.07;6.22;;;;;;;10.04;100.00;98023.09;4197393;28;20044;-72
2023/04/29 01:48:31;;;;;;;9.85;6.72;;;;;;;10.05;100.00;98014.41;4199398;28;20036;-72
2023/04/29 01:50:31;;;;;;;8.07;6.15;;;;;;;10.06;100.00;98017.97;4200225;28;20081;-72
2023/04/29 01:52:31;;;;;;;9.43;6.45;;;;;;;10.04;100.00;98023.88;4197054;28;20044;-72
2023/04/29 01:54:35;;;;;;;7.68;5.78;;;;;;;10.02;100.00;98014.41;4200453;28;20047;-72
2023/04/29 01:56:35;;;;;;;7.03;5.93;;;;;;;10.02;100.00;98011.63;4198838;28;20052;-72
2023/04/29 01:58:35;;;;;;;7.47;5.35;;;;;;;10.02;100.00;98004.13;4197837;28;20477;-72
2023/04/29 02:00:37;;;;;;;9.48;6.70;;;;;;;10.04;100.00;98015.59;4198141;28;20036;-72
2023/04/29 02:02:37;;;;;;;7.53;5.50;;;;;;;10.06;100.00;98016.00;4197908;28;20385;-72
2023/04/29 02:04:38;;;;;;;7.55;4.90;;;;;;;10.08;100.00;98010.84;4200974;28;20040;-72
2023/04/29 02:06:38;;;;;;;7.35;5.15;;;;;;;10.15;100.00;98015.63;4193999;28;20130;-72
2023/04/29 02:08:39;;;;;;;9.57;5.65;;;;;;;10.17;100.00;98018.00;4200177;28;20044;-72
2023/04/29 02:10:39;;;;;;;6.97;5.35;;;;;;;10.16;100.00;98019.19;4191954;28;20338;-72
2023/04/29 02:12:39;;;;;;;7.55;5.22;;;;;;;10.17;100.00;98018.81;4197883;28;20529;-72
2023/04/29 02:14:40;;;;;;;10.38;5.47;;;;;;;10.17;100.00;98018.00;4199801;28;20060;-72
2023/04/29 02:16:44;;;;;;;6.95;5.18;;;;;;;10.16;100.00;98024.72;4197926;28;20028;-72
2023/04/29 02:18:45;;;;;;;6.82;5.22;;;;;;;10.19;100.00;98032.28;4197128;28;20106;-72
2023/04/29 02:20:45;;;;;;;7.15;5.13;;;;;;;10.25;100.00;98016.91;4197502;28;20161;-72
2023/04/29 02:22:45;;;;;;;7.47;4.72;;;;;;;10.21;100.00;98016.88;4197872;28;20044;-72
2023/04/29 02:24:46;;;;;;;7.03;5.25;;;;;;;10.21;100.00;98016.88;4195137;28;20368;-72
2023/04/29 02:26:47;;;;;;;6.10;4.78;;;;;;;10.22;100.00;98023.19;4195893;28;20036;-72
2023/04/29 02:28:47;;;;;;;7.25;5.35;;;;;;;10.20;100.00;98022.78;4199931;28;20350;-72
2023/04/29 02:30:48;;;;;;;7.03;4.88;;;;;;;10.19;100.00;98015.69;4197983;28;20055;-72
2023/04/29 02:32:48;;;;;;;6.30;4.50;;;;;;;10.18;100.00;98016.84;4199684;28;20067;-72
2023/04/29 02:34:48;;;;;;;6.57;4.72;;;;;;;10.17;100.00;98018.81;4200523;28;20055;-72
2023/04/29 02:36:49;;;;;;;9.25;4.72;;;;;;;10.16;100.00;98021.97;4199621;28;20047;-72
2023/04/29 02:38:49;;;;;;;7.70;5.22;;;;;;;10.15;100.00;98026.69;4196093;28;20086;-72
2023/04/29 02:40:50;;;;;;;6.68;4.47;;;;;;;10.14;100.00;98025.91;4201545;28;20083;-72
2023/04/29 02:42:50;;;;;;;9.10;5.00;;;;;;;10.14;100.00;98025.13;4197018;28;20032;-72
2023/04/29 02:44:50;;;;;;;6.57;4.47;;;;;;;10.09;100.00;98029.06;4196327;28;20037;-72
2023/04/29 02:46:51;;;;;;;5.90;4.22;;;;;;;10.06;100.00;98027.03;4199369;28;20463;-72
2023/04/29 02:48:51;;;;;;;5.80;3.90;;;;;;;10.04;100.00;98023.88;4198847;28;20483;-72
2023/04/29 02:50:52;;;;;;;6.40;4.68;;;;;;;10.03;100.00;98022.28;4198146;28;20044;-72
2023/04/29 02:52:52;;;;;;;7.20;4.22;;;;;;;10.03;100.00;98032.56;4196081;28;20074;-72
2023/04/29 02:54:52;;;;;;;6.95;4.40;;;;;;;10.03;100.00;98024.28;4196117;28;20087;-72
2023/04/29 02:56:53;;;;;;;7.38;5.07;;;;;;;10.02;100.00;98030.97;4200190;28;20731;-72
2023/04/29 02:58:53;;;;;;;6.07;4.93;;;;;;;10.03;100.00;98035.31;4197052;28;20044;-72
2023/04/29 03:00:53;;;;;;;8.15;5.18;;;;;;;10.04;100.00;98034.94;4195047;28;20093;-72
2023/04/29 03:02:54;;;;;;;8.50;5.15;;;;;;;10.05;100.00;98032.97;4198139;28;20520;-72
2023/04/29 03:04:54;;;;;;;8.70;5.03;;;;;;;10.06;100.00;98035.34;4197444;28;20052;-72
2023/04/29 03:06:55;;;;;;;7.28;4.88;;;;;;;10.08;100.00;98027.44;4200237;28;20388;-72
2023/04/29 03:08:56;;;;;;;7.47;4.57;;;;;;;10.12;100.00;98028.28;4199420;28;20073;-72
2023/04/29 03:10:57;;;;;;;8.52;5.75;;;;;;;10.10;100.00;98033.41;4195513;28;20048;-72
2023/04/29 03:12:58;;;;;;;6.75;4.82;;;;;;;10.11;100.00;98028.66;4197709;28;20033;-72
2023/04/29 03:14:58;;;;;;;8.52;5.18;;;;;;;10.14;100.00;98036.19;4205825;28;20520;-72
2023/04/29 03:16:58;;;;;;;7.78;5.15;;;;;;;10.15;100.00;98035.00;4202257;28;20094;-72
2023/04/29 03:18:59;;;;;;;8.35;4.93;;;;;;;10.16;100.00;98027.50;4199543;28;20529;-72
2023/04/29 03:20:59;;;;;;;6.05;4.43;;;;;;;10.15;100.00;98032.22;4202365;28;20985;-72
2023/04/29 03:22:59;;;;;;;9.10;4.55;;;;;;;10.19;100.00;98030.28;4200037;28;20127;-72
2023/04/29 03:25:00;;;;;;;6.47;4.72;;;;;;;10.20;100.00;98026.34;4197743;28;20452;-72
2023/04/29 03:27:00;;;;;;;7.85;5.47;;;;;;;10.20;100.00;98031.09;4198308;28;20141;-72
2023/04/29 03:29:00;;;;;;;7.88;4.78;;;;;;;10.24;100.00;98035.47;4200360;28;20083;-72
2023/04/29 03:31:01;;;;;;;7.85;4.65;;;;;;;10.20;100.00;98031.88;4203934;28;20047;-72
2023/04/29 03:33:02;;;;;;;6.50;4.97;;;;;;;10.18;100.00;98025.13;4198825;28;20040;-72
2023/04/29 03:35:04;;;;;;;5.95;4.88;;;;;;;10.17;100.00;98035.38;4195123;28;20481;-72
2023/04/29 03:37:05;;;;;;;6.13;4.85;;;;;;;10.18;100.00;98028.72;4200335;28;20428;-72
2023/04/29 03:39:05;;;;;;;6.40;4.45;;;;;;;10.19;100.00;98035.81;4200557;28;20072;-72
2023/04/29 03:41:06;;;;;;;6.07;4.68;;;;;;;10.24;100.00;98034.69;4204027;28;20052;-72
2023/04/29 03:43:08;;;;;;;7.38;4.95;;;;;;;10.26;100.00;98029.53;4201944;28;20480;-72
2023/04/29 03:45:09;;;;;;;7.90;5.27;;;;;;;10.26;100.00;98037.84;4203519;28;20166;-72
2023/04/29 03:47:10;;;;;;;8.18;5.55;;;;;;;10.24;100.00;98035.47;4205844;28;20292;-72
2023/04/29 03:49:10;;;;;;;7.20;4.82;;;;;;;10.24;100.00;98032.69;4202191;28;20072;-72
2023/04/29 03:51:12;;;;;;;7.60;5.85;;;;;;;10.24;100.00;98035.47;4202783;28;20486;-72
2023/04/29 03:53:12;;;;;;;6.43;4.97;;;;;;;10.25;100.00;98033.50;4202448;28;20040;-72
2023/04/29 03:55:13;;;;;;;6.70;5.00;;;;;;;10.22;100.00;98037.84;4195631;28;20430;-72
2023/04/29 03:57:13;;;;;;;8.05;5.60;;;;;;;10.26;100.00;98040.59;4201499;28;20032;-72
2023/04/29 03:59:13;;;;;;;7.22;5.15;;;;;;;10.28;100.00;98043.81;4203479;28;20492;-72
2023/04/29 04:01:14;;;;;;;8.15;5.28;;;;;;;10.27;100.00;98050.50;4199114;28;20068;-72
2023/04/29 04:03:15;;;;;;;7.90;5.45;;;;;;;10.28;100.00;98052.09;4200424;28;20043;-72
2023/04/29 04:05:18;;;;;;;7.00;5.00;;;;;;;10.29;100.00;98059.22;4200526;28;20388;-72
2023/04/29 04:07:18;;;;;;;9.30;5.72;;;;;;;10.31;100.00;98062.38;4200183;28;20056;-72
2023/04/29 04:09:18;;;;;;;11.73;5.90;;;;;;;10.37;100.00;98056.09;4199666;28;20094;-72
2023/04/29 04:11:19;;;;;;;8.80;5.78;;;;;;;10.41;100.00;98051.38;4200471;28;20446;-72
2023/04/29 04:13:19;;;;;;;9.90;6.13;;;;;;;10.45;100.00;98065.22;4197391;28;20044;-72
2023/04/29 04:15:21;;;;;;;7.72;5.57;;;;;;;10.47;100.00;98068.38;4203406;28;20347;-72
2023/04/29 04:17:21;;;;;;;7.78;5.50;;;;;;;10.60;100.00;98064.13;4198839;28;20049;-72
2023/04/29 04:19:22;;;;;;;9.38;5.60;;;;;;;10.60;100.00;98072.41;4199321;28;20505;-72
2023/04/29 04:21:22;;;;;;;9.45;6.70;;;;;;;10.62;100.00;98072.03;4201247;28;20040;-72
2023/04/29 04:23:23;;;;;;;8.30;5.63;;;;;;;10.57;100.00;98077.91;4194738;28;20389;-72
2023/04/29 04:25:23;;;;;;;8.07;5.35;;;;;;;10.54;100.00;98076.72;4199481;28;20041;-72
2023/04/29 04:27:23;;;;;;;9.02;5.78;;;;;;;10.54;100.00;98082.25;4199562;28;20131;-72
2023/04/29 04:29:24;;;;;;;8.30;5.55;;;;;;;10.64;100.00;98087.03;4199818;28;20072;-72
2023/04/29 04:31:24;;;;;;;9.20;6.13;;;;;;;10.65;100.00;98096.13;4201389;28;20036;-72
2023/04/29 04:33:25;;;;;;;7.78;5.20;;;;;;;10.64;100.00;98084.28;4197952;28;20746;-72
2023/04/29 04:35:25;;;;;;;11.02;6.22;;;;;;;10.64;100.00;98092.59;4203089;28;20094;-72
2023/04/29 04:37:25;;;;;;;11.95;6.38;;;;;;;10.61;100.00;98084.28;4199770;28;20079;-72
2023/04/29 04:39:26;;;;;;;8.38;5.53;;;;;;;10.52;100.00;98086.59;4199002;28;20536;-72
2023/04/29 04:41:26;;;;;;;9.70;6.07;;;;;;;10.52;100.00;98094.91;4201433;28;20068;-72
2023/04/29 04:43:26;;;;;;;7.88;5.45;;;;;;;10.54;100.00;98093.31;4201009;28;20044;-72
2023/04/29 04:45:29;;;;;;;7.80;5.63;;;;;;;10.53;100.00;98097.28;4196406;28;20323;-72
2023/04/29 04:47:29;;;;;;;8.35;5.85;;;;;;;10.58;100.00;98096.88;4197790;28;20055;-72
2023/04/29 04:49:30;;;;;;;12.80;6.82;;;;;;;10.61;100.00;98098.91;4199881;28;20029;-72
2023/04/29 04:51:30;;;;;;;10.52;6.93;;;;;;;10.57;100.00;98111.13;4200847;28;20040;-72
2023/04/29 04:53:30;;;;;;;10.45;5.88;;;;;;;10.57;100.00;98109.13;4196881;28;20188;-72
2023/04/29 04:55:32;;;;;;;9.80;6.00;;;;;;;10.58;100.00;98104.41;4198303;28;20120;-72
2023/04/29 04:57:32;;;;;;;9.55;6.18;;;;;;;10.51;100.00;98107.13;4194738;28;20036;-72
2023/04/29 04:59:33;;;;;;;10.00;6.00;;;;;;;10.53;100.00;98116.63;4201450;28;20029;-72
2023/04/29 05:01:33;;;;;;;7.85;5.57;;;;;;;10.56;100.00;98117.81;4199446;28;20384;-72
2023/04/29 05:03:34;;;;;;;9.63;6.35;;;;;;;10.43;100.00;98108.28;4200504;28;20044;-72
2023/04/29 05:05:34;;;;;;;10.93;6.95;;;;;;;10.36;100.00;98117.31;4195825;28;20600;-72
2023/04/29 05:07:34;;;;;;;11.15;6.70;;;;;;;10.31;100.00;98120.44;4198343;28;20080;-72
2023/04/29 05:09:35;;;;;;;9.18;5.85;;;;;;;10.38;100.00;98124.03;4199962;28;20124;-72
2023/04/29 05:11:36;;;;;;;9.35;6.20;;;;;;;10.37;100.00;98116.13;4201394;28;20040;-72
2023/04/29 05:13:36;;;;;;;9.40;5.55;;;;;;;10.36;100.00;98118.13;4195703;28;20043;-72
2023/04/29 05:15:36;;;;;;;10.05;5.93;;;;;;;10.38;100.00;98129.56;4201151;28;20063;-72
2023/04/29 05:17:37;;;;;;;9.80;6.13;;;;;;;10.40;100.00;98129.19;4199633;28;20167;-72
2023/04/29 05:19:37;;;;;;;12.93;6.82;;;;;;;10.37;100.00;98129.97;4200914;28;20071;-72
2023/04/29 05:21:37;;;;;;;9.52;5.93;;;;;;;10.29;100.00;98126.34;4198824;28;20045;-72
2023/04/29 05:23:37;;;;;;;12.77;6.82;;;;;;;10.38;100.00;98131.56;4198566;28;20036;-72
2023/04/29 05:25:38;;;;;;;11.07;5.97;;;;;;;10.39;100.00;98133.13;4195780;28;20048;-72
2023/04/29 05:27:38;;;;;;;11.57;6.32;;;;;;;10.45;100.00;98134.38;4197903;28;20040;-72
2023/04/29 05:29:39;;;;;;;10.32;6.15;;;;;;;10.44;100.00;98135.56;4198534;28;20135;-72
2023/04/29 05:31:39;;;;;;;9.70;5.75;;;;;;;10.49;100.00;98131.59;4198358;28;20040;-72
2023/04/29 05:33:40;;;;;;;11.80;6.85;;;;;;;10.51;100.00;98143.91;4194002;28;20102;-72
2023/04/29 05:35:40;;;;;;;10.18;6.82;;;;;;;10.51;100.00;98138.38;4199078;28;20722;-72
2023/04/29 05:37:41;;;;;;;10.60;6.20;;;;;;;10.56;100.00;98134.44;4200397;28;20043;-72
2023/04/29 05:39:41;;;;;;;9.07;6.07;;;;;;;10.60;100.00;98146.31;4198756;28;20031;-72
2023/04/29 05:41:41;;;;;;;11.38;6.68;;;;;;;10.62;100.00;98141.97;4201289;28;20121;-72
2023/04/29 05:43:42;;;;;;;8.00;5.80;;;;;;;10.56;100.00;98146.28;4198687;28;20129;-72
2023/04/29 05:45:45;;;;;;;8.82;5.40;;;;;;;10.56;100.00;98157.34;4196379;28;20916;-72
2023/04/29 05:47:46;;;;;;;12.77;6.07;;;;;;;10.58;100.00;98149.44;4204157;28;20048;-72
2023/04/29 05:49:47;;;;;;;9.73;5.95;;;;;;;10.53;100.00;98149.81;4199372;28;20035;-72
2023/04/29 05:51:47;;;;;;;9.00;6.18;;;;;;;10.57;100.00;98150.63;4201655;28;20044;-72
2023/04/29 05:53:47;;;;;;;11.68;6.72;;;;;;;10.50;100.00;98149.78;4196617;28;20032;-72
2023/04/29 05:55:49;;;;;;;9.90;6.65;;;;;;;10.54;100.00;98154.19;4198786;28;20496;-72
2023/04/29 05:57:50;;;;;;;8.65;6.32;;;;;;;10.57;100.00;98158.94;4199811;28;20502;-72
2023/04/29 05:59:50;;;;;;;13.23;6.45;;;;;;;10.64;100.00;98150.69;4197090;28;20071;-72
2023/04/29 06:01:50;;;;;;;11.65;6.38;;;;;;;10.66;100.00;98159.38;4200080;28;20097;-72
2023/04/29 06:03:51;;;;;;;10.25;6.65;;;;;;;10.67;100.00;98157.41;4197808;28;20037;-72
2023/04/29 06:05:51;;;;;;;10.13;6.57;;;;;;;10.62;100.00;98168.84;4192637;28;20076;-72
2023/04/29 06:07:51;;;;;;;10.55;6.68;;;;;;;10.63;100.00;98174.00;4193765;28;20441;-72
2023/04/29 06:09:52;;;;;;;12.98;6.70;;;;;;;10.67;100.00;98166.53;4200738;28;20037;-72
2023/04/29 06:11:52;;;;;;;11.23;7.20;;;;;;;10.76;100.00;98179.19;4198236;28;20142;-72
2023/04/29 06:13:52;;;;;;;9.90;6.07;;;;;;;10.77;100.00;98173.28;4200945;28;20093;-72
2023/04/29 06:15:53;;;;;;;10.32;6.50;;;;;;;10.81;100.00;98174.09;4200473;28;20047;-72
2023/04/29 06:17:53;;;;;;;12.68;8.25;;;;;;;10.80;100.00;98182.78;4194113;28;20040;-72
2023/04/29 06:19:54;;;;;;;12.07;7.28;;;;;;;10.86;100.00;98184.03;4200245;28;20048;-72
2023/04/29 06:21:55;;;;;;;12.95;7.50;;;;;;;10.89;100.00;98189.56;4149031;27;20044;-72
2023/04/29 06:23:55;;;;;;;11.95;6.68;;;;;;;10.90;100.00;98196.69;4204115;28;20381;-72
2023/04/29 06:25:56;;;;;;;11.30;7.22;;;;;;;10.89;100.00;98197.06;4197502;28;20101;-72
2023/04/29 06:27:57;;;;;;;11.73;7.38;;;;;;;10.89;100.00;98192.34;4198435;28;20058;-72
2023/04/29 06:29:57;;;;;;;11.63;7.07;;;;;;;10.87;100.00;98191.94;4198378;28;20131;-72
2023/04/29 06:31:58;;;;;;;10.80;7.10;;;;;;;10.89;100.00;98206.16;4201730;28;20458;-72
2023/04/29 06:33:58;;;;;;;12.27;6.90;;;;;;;10.89;100.00;98206.16;4196656;28;20673;-72
2023/04/29 06:35:58;;;;;;;10.52;6.63;;;;;;;10.87;100.00;98196.66;4204180;28;20127;-72
2023/04/29 06:37:59;;;;;;;11.70;6.97;;;;;;;10.72;100.00;98209.63;4198336;28;20032;-72
2023/04/29 06:39:59;;;;;;;13.40;7.80;;;;;;;10.77;100.00;98214.81;4194370;28;20041;-72
2023/04/29 06:42:00;;;;;;;12.68;8.38;;;;;;;10.67;100.00;98226.56;4201876;28;20185;-72
2023/04/29 06:44:01;;;;;;;20.38;11.23;;;;;;;10.65;100.00;98220.63;4198381;28;20125;-72
2023/04/29 06:46:01;;;;;;;22.45;13.50;;;;;;;10.65;100.00;98226.16;4195243;28;20443;-72
2023/04/29 06:48:02;;;;;;;18.50;9.27;;;;;;;10.65;100.00;98232.50;4200546;28;20032;-72
2023/04/29 06:50:04;;;;;;;24.08;13.00;;;;;;;10.65;100.00;98226.16;4202124;28;20023;-72
2023/04/29 06:52:04;;;;;;;14.65;8.57;;;;;;;10.65;100.00;98226.16;4195884;28;20089;-72
2023/04/29 06:54:04;;;;;;;16.95;9.35;;;;;;;10.57;100.00;98228.09;4200237;28;20555;-72
2023/04/29 06:56:05;;;;;;;17.15;9.80;;;;;;;10.59;100.00;98233.22;4201533;28;20083;-72
2023/04/29 06:58:06;;;;;;;14.77;9.02;;;;;;;10.62;100.00;98236.03;4201291;28;20315;-72
2023/04/29 07:00:07;;;;;;;20.58;12.13;;;;;;;10.67;100.00;98232.09;4198274;28;20038;-72
2023/04/29 07:02:07;;;;;;;16.75;8.50;;;;;;;10.67;100.00;98241.22;4202046;28;20033;-72
2023/04/29 07:04:07;;;;;;;7.47;5.18;;;;;;;10.66;100.00;98244.34;4202146;28;20375;-72
2023/04/29 07:06:08;;;;;;;8.20;5.72;;;;;;;10.67;100.00;98243.16;4199713;28;20523;-72
2023/04/29 07:08:09;;;;;;;7.68;4.30;;;;;;;10.62;100.00;98243.56;4202824;28;20044;-72
2023/04/29 07:10:09;;;;;;;5.63;4.55;;;;;;;10.64;100.00;98246.72;4202006;28;21192;-72
2023/04/29 07:12:09;;;;;;;9.38;4.53;;;;;;;10.62;100.00;98260.16;4196514;28;20024;-72
2023/04/29 07:14:10;;;;;;;6.18;3.92;;;;;;;10.67;100.00;98262.53;4201784;28;20157;-72
2023/04/29 07:16:15;;;;;;;5.40;3.80;;;;;;;10.71;100.00;98257.06;4201582;28;20199;-72
2023/04/29 07:18:15;;;;;;;6.25;4.03;;;;;;;10.57;100.00;98257.72;4202439;28;20043;-72
2023/04/29 07:20:16;;;;;;;5.45;3.40;;;;;;;10.64;100.00;98263.31;4197293;28;20017;-72
2023/04/29 07:22:17;;;;;;;6.25;3.80;;;;;;;10.75;100.00;98271.69;4203554;28;20049;-72
2023/04/29 07:24:17;;;;;;;6.45;3.50;;;;;;;10.50;100.00;98266.75;4201484;28;20036;-72
2023/04/29 07:26:18;;;;;;;5.22;3.30;;;;;;;10.47;100.00;98273.06;4202842;28;20080;-72
2023/04/29 07:28:18;;;;;;;10.20;4.63;;;;;;;10.53;100.00;98277.06;4201973;28;20043;-72
2023/04/29 07:30:19;;;;;;;4.90;2.90;;;;;;;10.50;100.00;98277.03;4201031;28;20469;-72
2023/04/29 07:32:19;;;;;;;6.72;3.90;;;;;;;10.56;100.00;98281.03;4198115;28;20182;-72
2023/04/29 07:34:19;;;;;;;5.88;3.78;;;;;;;10.46;100.00;98279.78;4199173;28;20028;-72
2023/04/29 07:36:20;;;;;;;6.05;3.80;;;;;;;10.52;100.00;98285.75;4200584;28;20032;-72
2023/04/29 07:38:20;;;;;;;6.70;4.13;;;;;;;10.51;100.00;98284.97;4201239;28;20044;-72
2023/04/29 07:40:20;;;;;;;8.90;4.90;;;;;;;10.55;100.00;98280.25;4199086;28;20401;-72
2023/04/29 07:42:21;;;;;;;6.05;3.95;;;;;;;10.61;100.00;98289.00;4202579;28;20109;-72
2023/04/29 07:44:22;;;;;;;8.82;4.90;;;;;;;10.60;100.00;98290.97;4201144;28;20049;-72
2023/04/29 07:46:22;;;;;;;8.10;4.72;;;;;;;10.58;100.00;98303.56;4201008;28;20064;-72
2023/04/29 07:48:22;;;;;;;7.65;4.38;;;;;;;10.59;100.00;98299.63;4201611;28;20079;-72
2023/04/29 07:50:22;;;;;;;7.40;4.57;;;;;;;10.61;100.00;98302.81;4200482;28;20041;-72
2023/04/29 07:52:23;;;;;;;8.02;4.22;;;;;;;10.61;100.00;98311.13;4202923;28;20472;-72
2023/04/29 07:54:23;;;;;;;7.32;4.60;;;;;;;10.56;100.00;98311.47;4200282;28;20146;-72
2023/04/29 07:56:24;;;;;;;6.47;4.25;;;;;;;10.59;100.00;98319.81;4198807;28;20033;-72
2023/04/29 07:58:26;;;;;;;5.22;3.90;;;;;;;10.55;100.00;98330.03;4200977;28;20098;-72
2023/04/29 08:00:27;;;;;;;6.85;4.07;;;;;;;10.55;100.00;98327.28;4200540;28;20044;-72
2023/04/29 08:02:27;;;;;;;11.15;4.68;;;;;;;10.50;100.00;98330.38;4198768;28;20091;-72
2023/04/29 08:04:27;;;;;;;10.35;4.60;;;;;;;10.46;100.00;98335.09;4197943;28;20491;-72
2023/04/29 08:06:28;;;;;;;7.15;4.65;;;;;;;10.42;100.00;98325.94;4199408;28;20052;-72
2023/04/29 08:08:30;;;;;;;8.27;4.35;;;;;;;10.48;100.00;98341.03;4200658;28;20048;-72
2023/04/29 08:10:30;;;;;;;6.88;4.57;;;;;;;10.48;100.00;98343.00;4199427;28;20047;-71
2023/04/29 08:12:31;;;;;;;8.70;5.10;;;;;;;10.44;100.00;98334.69;4198857;28;20503;-72
2023/04/29 08:14:31;;;;;;;8.07;4.75;;;;;;;10.35;100.00;98340.53;4199330;28;20064;-72
2023/04/29 08:16:31;;;;;;;10.13;5.32;;;;;;;10.39;100.00;98349.66;4197203;28;20115;-72
2023/04/29 08:18:32;;;;;;;8.55;5.15;;;;;;;10.45;100.00;98352.06;4198191;28;20044;-72
2023/04/29 08:20:32;;;;;;;7.55;4.95;;;;;;;10.49;100.00;98359.22;4199354;28;20036;-72
2023/04/29 08:22:33;;;;;;;11.18;5.30;;;;;;;10.53;100.00;98348.19;4198717;28;20123;-72
2023/04/29 08:24:34;;;;;;;7.30;4.65;;;;;;;10.68;100.00;98352.69;4200861;28;20050;-72
2023/04/29 08:26:34;;;;;;;8.27;4.88;;;;;;;10.72;100.00;98356.28;4197149;28;20044;-72
2023/04/29 08:28:34;;;;;;;8.75;5.18;;;;;;;10.91;100.00;98349.69;4199120;28;20047;-72
2023/04/29 08:30:39;;;;;;;8.50;4.97;;;;;;;10.91;100.00;98352.47;4199521;28;20052;-72
2023/04/29 08:32:40;;;;;;;6.38;4.32;;;;;;;10.94;100.00;98360.81;4196053;28;20052;-72
2023/04/29 08:34:40;;;;;;;8.13;5.40;;;;;;;10.95;100.00;98358.84;4199032;28;20163;-72
2023/04/29 08:36:41;;;;;;;8.52;4.95;;;;;;;10.97;100.00;98365.59;4198855;28;20044;-72
2023/04/29 08:38:41;;;;;;;8.23;5.35;;;;;;;11.01;100.00;98367.59;4202428;28;20052;-72
2023/04/29 08:40:44;;;;;;;7.75;4.55;;;;;;;10.98;100.00;98381.00;4202061;28;20415;-72
2023/04/29 08:42:47;;;;;;;7.65;4.78;;;;;;;10.81;100.00;98386.41;4200619;28;20354;-72
2023/04/29 08:44:48;;;;;;;7.15;4.90;;;;;;;10.67;100.00;98381.53;4201399;28;20046;-72
2023/04/29 08:46:50;;;;;;;8.93;5.23;;;;;;;10.49;100.00;98380.56;4198207;28;20424;-72
2023/04/29 08:48:51;;;;;;;9.05;5.30;;;;;;;10.47;100.00;98380.94;4197423;28;20458;-72
2023/04/29 08:50:52;;;;;;;7.53;4.93;;;;;;;10.50;100.00;98384.91;4202388;28;20040;-72
2023/04/29 08:52:52;;;;;;;8.18;5.25;;;;;;;10.37;100.00;98381.63;4199298;28;20457;-72
2023/04/29 08:54:54;;;;;;;8.77;4.57;;;;;;;10.47;100.00;98389.22;4203366;28;20341;-72
2023/04/29 08:56:56;;;;;;;;;;;;;;;10.50;100.00;98388.47;4202473;28;20263;-72
2023/04/29 08:58:58;;;;;;;7.63;4.07;;;;;;;10.46;100.00;98389.63;4196146;28;19997;-72
2023/04/29 09:00:58;;;;;;;6.45;4.13;;;;;;;10.37;100.00;98401.78;4199076;28;20109;-72
2023/04/29 09:03:00;;;;;;;7.63;4.90;;;;;;;10.30;100.00;98395.38;4201030;28;20036;-72
2023/04/29 09:05:10;;;;;;;8.00;4.63;;;;;;;10.33;100.00;98400.13;4198801;28;20063;-72
2023/04/29 09:07:11;;;;;;;7.32;4.55;;;;;;;10.27;100.00;98399.69;4198663;28;20392;-72
2023/04/29 09:09:14;;;;;;;11.20;5.40;;;;;;;10.29;100.00;98405.63;4199134;28;20040;-72
2023/04/29 09:11:14;;;;;;;10.43;4.65;;;;;;;10.29;100.00;98402.88;4197197;28;20036;-72
2023/04/29 09:13:31;;;;;;;9.57;4.68;;;;;;;10.30;100.00;98409.19;4200752;28;20044;-72
2023/04/29 09:15:36;;;;;;;9.32;5.28;;;;;;;10.49;100.00;98405.44;4195723;28;20034;-72
2023/04/29 09:17:44;;;;;;;11.27;7.00;;;;;;;10.62;100.00;98413.09;4198571;28;20037;-72
2023/04/29 09:19:45;;;;;;;9.57;6.03;;;;;;;10.74;100.00;98422.31;4196503;28;20252;-72
2023/04/29 09:21:54;;;;;;;8.20;4.43;;;;;;;10.71;100.00;98412.00;4194986;28;20175;-72